Time;durP1;ratioP1;P1;durP2;ratioP2;P2;SDS_P1;SDS_P2;PMS_P1;PMS_P2;Temp;Humidity;BMP_temperature;BMP_pressure;BME280_temperature;BME280_humidity;BME280_pressure;Samples;Min_cycle;Max_cycle;Signal;HPM_P1;HPM_P2
2023/10/21 08:55:10;;;;;;;0.40;0.40;;;;;;;22.15;47.25;97248.91;5170967;27;20552;-85
2023/10/21 08:57:42;;;;;;;0.47;0.40;;;;;;;22.64;46.61;97255.69;5152051;27;40041;-85
2023/10/21 09:00:20;;;;;;;0.50;0.50;;;;;;;23.43;45.21;97279.75;5169171;27;43517;-84
2023/10/21 09:02:47;;;;;;;0.50;0.43;;;;;;;24.05;44.84;97279.00;5152216;27;43071;-85
2023/10/21 09:05:15;;;;;;;0.33;0.33;;;;;;;25.11;42.81;97299.69;5152317;27;41149;-85
2023/10/21 09:07:47;;;;;;;0.90;0.40;;;;;;;25.88;41.32;97301.66;5169502;27;39772;-84
2023/10/21 09:10:15;;;;;;;0.37;0.30;;;;;;;26.48;41.09;97288.00;5169324;27;41673;-86
2023/10/21 09:12:45;;;;;;;0.93;0.40;;;;;;;27.09;39.74;97327.47;5152125;27;41782;-85
2023/10/21 09:15:13;;;;;;;0.40;0.30;;;;;;;26.96;38.47;97331.25;5152639;27;42716;-82
2023/10/21 09:17:44;;;;;;;0.47;0.47;;;;;;;26.01;39.45;97300.63;5171816;27;40008;-84
2023/10/21 09:20:14;;;;;;;0.33;0.33;;;;;;;25.37;41.70;97311.06;5152655;27;42307;-84
2023/10/21 09:22:43;;;;;;;0.43;0.37;;;;;;;24.60;42.01;97298.13;5152992;27;43234;-84
2023/10/21 09:25:16;;;;;;;0.70;0.30;;;;;;;24.17;42.36;97312.41;5152466;27;44266;-84
2023/10/21 09:27:46;;;;;;;0.20;0.20;;;;;;;23.88;43.22;97324.66;5151043;27;38818;-84
2023/10/21 09:30:16;;;;;;;0.30;0.30;;;;;;;23.86;43.87;97326.72;5169029;27;41948;-83
2023/10/21 09:32:48;;;;;;;0.40;0.40;;;;;;;23.87;43.73;97306.75;5168868;27;43051;-84
2023/10/21 09:35:27;;;;;;;0.30;0.30;;;;;;;23.79;43.11;97307.03;5133958;27;42981;-84
2023/10/21 09:37:56;;;;;;;0.30;0.30;;;;;;;23.66;43.58;97304.41;5151533;27;40207;-85
2023/10/21 09:40:39;;;;;;;0.67;0.50;;;;;;;24.38;43.12;97332.03;5151245;27;40734;-85
2023/10/21 09:43:12;;;;;;;1.87;0.40;;;;;;;24.49;42.06;97334.03;5151036;27;43636;-86
2023/10/21 09:46:07;;;;;;;0.70;0.40;;;;;;;24.60;42.81;97342.25;5151721;27;41649;-86
2023/10/21 09:48:52;;;;;;;0.33;0.33;;;;;;;24.61;42.58;97335.78;5151336;27;41306;-84
2023/10/21 09:51:24;;;;;;;0.30;0.30;;;;;;;24.84;41.48;97331.66;5150825;27;41087;-85
2023/10/21 09:54:01;;;;;;;0.90;0.50;;;;;;;25.56;41.36;97357.13;5150710;27;43254;-85
2023/10/21 09:56:49;;;;;;;0.50;0.50;;;;;;;26.24;40.46;97354.97;5150907;27;43923;-85
2023/10/21 09:59:19;;;;;;;0.80;0.40;;;;;;;26.79;37.57;97382.72;5150531;27;39377;-84
2023/10/21 10:01:47;;;;;;;1.07;0.40;;;;;;;26.69;38.07;97379.78;5151055;27;40356;-84
2023/10/21 10:04:36;;;;;;;0.30;0.30;;;;;;;26.29;38.07;97373.31;5164463;27;44261;-85
2023/10/21 10:07:11;;;;;;;0.80;0.50;;;;;;;25.74;39.27;97354.41;5137044;27;42391;-84
2023/10/21 10:09:44;;;;;;;1.40;0.50;;;;;;;25.66;39.43;97360.16;5137001;27;39147;-87
2023/10/21 10:12:38;;;;;;;0.47;0.47;;;;;;;26.02;38.31;97342.97;5152872;27;41962;-84
2023/10/21 10:15:33;;;;;;;0.40;0.40;;;;;;;26.62;37.98;97357.31;5137755;27;43085;-84
2023/10/21 10:18:04;;;;;;;0.37;0.37;;;;;;;27.06;37.44;97357.84;5137656;27;41458;-85
2023/10/21 10:20:33;;;;;;;0.93;0.57;;;;;;;27.91;37.18;97371.66;5138377;27;41654;-85
2023/10/21 10:23:12;;;;;;;0.97;0.50;;;;;;;29.39;34.81;97351.31;5137922;27;41119;-85
2023/10/21 10:25:51;;;;;;;1.75;0.40;;;;;;;32.08;30.62;97411.06;5138090;27;42150;-86
2023/10/21 10:28:24;;;;;;;0.40;0.40;;;;;;;34.06;26.69;97419.31;5120943;27;41302;-87
2023/10/21 10:30:56;;;;;;;0.77;0.30;;;;;;;34.82;26.42;97451.94;5137926;27;39243;-86
2023/10/21 10:33:45;;;;;;;0.30;0.30;;;;;;;35.19;26.06;97427.41;5121103;27;40726;-86
2023/10/21 10:36:34;;;;;;;1.38;0.30;;;;;;;35.25;25.72;97437.28;5137816;27;41687;-84
2023/10/21 10:39:04;;;;;;;0.50;0.38;;;;;;;35.35;25.28;97424.56;5136170;27;43108;-88
2023/10/21 10:41:43;;;;;;;0.30;0.30;;;;;;;36.21;23.76;97438.22;5143643;27;41085;-86
2023/10/21 10:44:12;;;;;;;0.30;0.20;;;;;;;36.31;23.66;97442.78;5147120;27;41038;-88
2023/10/21 10:52:27;;;;;;;0.28;0.28;;;;;;;37.02;22.78;97392.91;5153355;27;40649;-87
2023/10/21 10:54:55;;;;;;;0.22;0.20;;;;;;;37.04;23.20;97442.28;5122715;27;40264;-84
2023/10/21 10:57:23;;;;;;;0.20;0.13;;;;;;;37.10;23.16;97438.31;5139586;27;42897;-86
2023/10/21 11:00:31;;;;;;;0.80;0.30;;;;;;;37.79;21.73;97425.53;5139556;27;42191;-85
2023/10/21 11:03:24;;;;;;;0.30;0.30;;;;;;;38.32;22.53;97442.44;5096860;27;39506;-87
2023/10/21 11:05:55;;;;;;;0.52;0.40;;;;;;;37.61;21.85;97460.34;5096839;27;41060;-89
2023/10/21 11:08:31;;;;;;;0.45;0.40;;;;;;;35.82;23.12;97408.09;5083291;27;42425;-85
2023/10/21 11:11:05;;;;;;;0.28;0.28;;;;;;;35.58;24.43;97440.28;5114171;27;43181;-85
2023/10/21 11:13:33;;;;;;;0.85;0.40;;;;;;;35.91;23.21;97447.66;5132938;27;41228;-89
2023/10/21 11:16:04;;;;;;;0.50;0.32;;;;;;;37.07;22.08;97455.50;5097814;27;41708;-87
2023/10/21 11:18:34;;;;;;;0.47;0.30;;;;;;;38.32;21.88;97447.97;5098578;27;41874;-86
2023/10/21 11:21:01;;;;;;;0.50;0.40;;;;;;;39.45;20.70;97469.97;5098062;27;41067;-86
2023/10/21 11:23:32;;;;;;;1.25;0.30;;;;;;;40.71;19.39;97452.88;5115578;27;40122;-85
2023/10/21 11:26:07;;;;;;;0.63;0.32;;;;;;;41.89;17.55;97463.41;5099462;27;40827;-84
2023/10/21 11:28:37;;;;;;;0.60;0.30;;;;;;;42.54;17.04;97472.44;5156481;27;42390;-85
2023/10/21 11:31:05;;;;;;;1.15;0.38;;;;;;;42.55;16.72;97458.16;5144826;27;42727;-84
2023/10/21 11:33:34;;;;;;;1.13;0.30;;;;;;;42.51;17.00;97467.56;5145677;27;38759;-86
2023/10/21 11:36:03;;;;;;;0.57;0.55;;;;;;;42.56;17.35;97465.38;5158501;27;42332;-86
2023/10/21 11:38:34;;;;;;;0.30;0.20;;;;;;;42.49;17.19;97475.44;5142436;27;42374;-85
2023/10/21 11:41:07;;;;;;;0.38;0.38;;;;;;;42.17;16.65;97486.03;5141355;27;41028;-87
2023/10/21 11:43:35;;;;;;;0.20;0.20;;;;;;;41.34;17.48;97471.69;5153339;27;39903;-86
2023/10/21 11:46:03;;;;;;;1.23;0.25;;;;;;;41.58;17.35;97468.41;5156329;27;42733;-87
2023/10/21 11:48:30;;;;;;;1.95;0.47;;;;;;;42.19;17.73;97467.03;5139300;27;45073;-86
2023/10/21 11:51:00;;;;;;;0.55;0.40;;;;;;;42.64;16.91;97460.91;5155981;27;42712;-86
2023/10/21 11:53:27;;;;;;;0.45;0.35;;;;;;;43.37;16.96;97466.91;5156481;27;39934;-87
2023/10/21 12:13:24;;;;;;;0.82;0.50;;;;;;;47.21;13.75;97470.47;5139459;27;42696;-84
2023/10/21 12:19:06;;;;;;;0.30;0.30;;;;;;;46.12;13.49;97472.31;5126309;27;42319;-87
2023/10/21 12:24:55;;;;;;;1.00;0.32;;;;;;;45.16;13.83;97483.66;5108342;27;42394;-87
2023/10/21 12:30:39;;;;;;;0.35;0.30;;;;;;;44.44;14.47;97476.19;5113044;27;42230;-88
2023/10/21 12:33:19;;;;;;;0.55;0.32;;;;;;;42.82;15.55;97462.44;5139248;27;41759;-86
2023/10/21 12:36:07;;;;;;;0.20;0.20;;;;;;;40.72;16.75;97447.00;5139771;27;42570;-86
2023/10/21 12:38:38;;;;;;;1.00;0.35;;;;;;;38.25;18.25;97455.03;5139621;27;38867;-85
2023/10/21 12:41:21;;;;;;;0.75;0.50;;;;;;;36.20;19.78;97446.78;5156082;27;40585;-85
2023/10/21 12:43:48;;;;;;;0.80;0.50;;;;;;;34.57;21.56;97448.22;5137746;27;44351;-85
2023/10/21 12:46:18;;;;;;;1.63;0.50;;;;;;;33.35;22.71;97436.81;5137767;27;42259;-85
2023/10/21 12:48:51;;;;;;;0.47;0.47;;;;;;;32.11;23.75;97413.28;5155552;27;39981;-85
2023/10/21 12:51:19;;;;;;;0.83;0.40;;;;;;;31.24;25.28;97411.16;5155302;27;42354;-84
2023/10/21 12:53:46;;;;;;;1.00;0.50;;;;;;;30.93;25.13;97410.88;5154955;27;43248;-84
2023/10/21 12:56:15;;;;;;;0.40;0.40;;;;;;;30.49;26.08;97393.81;5137910;27;42199;-86
2023/10/21 12:58:43;;;;;;;0.50;0.50;;;;;;;31.83;25.39;97400.03;5137668;27;40934;-85
2023/10/21 13:01:12;;;;;;;0.90;0.70;;;;;;;32.59;24.26;97378.34;5137490;27;42054;-85
2023/10/21 13:03:40;;;;;;;1.20;0.50;;;;;;;32.57;24.32;97386.00;5137749;27;42322;-85
2023/10/21 13:06:09;;;;;;;1.20;0.80;;;;;;;32.33;24.39;97418.56;5137786;27;42847;-86
2023/10/21 13:08:36;;;;;;;1.20;0.70;;;;;;;31.08;24.72;97353.59;5138033;27;39147;-86
2023/10/21 13:11:05;;;;;;;1.03;0.60;;;;;;;30.76;25.78;97398.47;5155472;27;40662;-87
2023/10/21 13:13:37;;;;;;;1.73;0.40;;;;;;;30.50;26.64;97397.38;5138763;27;43019;-85
2023/10/21 13:16:07;;;;;;;0.60;0.40;;;;;;;29.99;26.32;97416.75;5153234;27;43110;-85
2023/10/21 13:18:34;;;;;;;0.60;0.40;;;;;;;29.40;27.00;97402.06;5138698;27;39086;-84
2023/10/21 13:21:02;;;;;;;0.40;0.40;;;;;;;28.86;27.50;97401.72;5156270;27;40680;-89
2023/10/21 13:23:29;;;;;;;0.73;0.60;;;;;;;28.37;28.30;97424.25;5156069;27;42892;-84
2023/10/21 13:25:57;;;;;;;0.60;0.50;;;;;;;29.30;28.02;97396.41;5156180;27;42114;-85
2023/10/21 13:28:25;;;;;;;0.30;0.30;;;;;;;30.46;26.81;97420.81;5155565;27;38913;-85
2023/10/21 13:30:54;;;;;;;1.07;0.60;;;;;;;30.28;26.59;97401.00;5156102;27;42168;-86
2023/10/21 13:33:22;;;;;;;0.97;0.47;;;;;;;30.89;25.85;97401.59;5138365;27;41754;-86
2023/10/21 13:35:49;;;;;;;0.40;0.40;;;;;;;31.35;26.14;97407.41;5156232;27;42216;-86
2023/10/21 13:38:17;;;;;;;0.80;0.50;;;;;;;31.85;25.72;97423.31;5160605;27;40193;-86
2023/10/21 13:40:44;;;;;;;0.40;0.40;;;;;;;32.10;25.52;97430.81;5155885;27;42795;-85
2023/10/21 13:43:12;;;;;;;0.50;0.33;;;;;;;32.36;25.70;97418.03;5162377;27;41812;-85
2023/10/21 13:45:39;;;;;;;0.80;0.50;;;;;;;32.03;25.67;97419.25;5141055;27;41848;-85
2023/10/21 13:48:11;;;;;;;0.60;0.50;;;;;;;31.15;26.32;97423.69;5140687;27;40437;-85
2023/10/21 13:50:39;;;;;;;1.27;0.57;;;;;;;30.46;27.25;97412.63;5140740;27;43161;-86
2023/10/21 13:53:14;;;;;;;0.50;0.40;;;;;;;29.87;27.83;97412.47;5157852;27;43488;-85
2023/10/21 13:55:42;;;;;;;0.87;0.40;;;;;;;29.64;28.67;97414.38;5140982;27;42218;-85
2023/10/21 13:58:10;;;;;;;0.47;0.47;;;;;;;29.70;28.95;97417.16;5158102;27;38911;-85
2023/10/21 14:00:38;;;;;;;0.30;0.30;;;;;;;29.25;29.20;97418.16;5157968;27;40625;-85
2023/10/21 14:03:13;;;;;;;0.30;0.30;;;;;;;28.44;29.83;97403.97;5140976;27;42067;-86
2023/10/21 14:05:44;;;;;;;0.77;0.40;;;;;;;27.70;30.71;97419.34;5155070;27;42137;-84
2023/10/21 14:08:13;;;;;;;0.30;0.30;;;;;;;26.97;31.87;97413.59;5158071;27;39973;-84
2023/10/21 14:10:43;;;;;;;0.60;0.50;;;;;;;26.41;32.97;97412.16;5158293;27;41737;-86
2023/10/21 14:13:15;;;;;;;2.23;0.43;;;;;;;25.73;34.37;97369.84;5141401;27;42967;-85
2023/10/21 14:15:48;;;;;;;0.70;0.40;;;;;;;25.47;35.13;97407.28;5141937;27;41224;-84
2023/10/21 14:18:17;;;;;;;0.60;0.50;;;;;;;25.02;36.07;97383.16;5142107;27;38893;-85
2023/10/21 14:20:49;;;;;;;0.37;0.37;;;;;;;24.82;36.01;97404.16;5141676;27;40971;-84
2023/10/21 14:23:18;;;;;;;0.40;0.40;;;;;;;24.40;37.06;97387.59;5158701;27;42748;-84
2023/10/21 14:25:48;;;;;;;0.97;0.50;;;;;;;24.14;37.46;97395.84;5158516;27;44309;-84
2023/10/21 14:28:17;;;;;;;0.40;0.40;;;;;;;23.67;37.91;97367.41;5159050;27;40138;-84
2023/10/21 14:30:46;;;;;;;1.47;0.50;;;;;;;23.61;38.68;97396.94;5141499;27;40804;-84
2023/10/21 14:33:15;;;;;;;2.73;0.60;;;;;;;23.21;39.07;97371.91;5158923;27;43958;-85
2023/10/21 14:35:46;;;;;;;0.97;0.47;;;;;;;23.15;39.68;97394.34;5158246;27;42185;-84
2023/10/21 14:38:14;;;;;;;1.00;0.60;;;;;;;22.82;39.77;97374.66;5141226;27;39664;-83
2023/10/21 14:40:43;;;;;;;1.20;0.60;;;;;;;22.71;39.92;97389.59;5140503;27;40713;-83
2023/10/21 14:43:12;;;;;;;1.50;0.50;;;;;;;22.53;40.84;97384.81;5138705;27;43291;-83
2023/10/21 14:45:42;;;;;;;0.60;0.30;;;;;;;22.32;41.02;97374.22;5140206;27;41544;-84
2023/10/21 14:48:10;;;;;;;0.73;0.63;;;;;;;22.32;41.48;97385.00;5139980;27;39142;-84
2023/10/21 14:50:38;;;;;;;1.70;0.60;;;;;;;22.16;41.88;97380.00;5156939;27;40934;-83
2023/10/21 14:53:09;;;;;;;0.50;0.40;;;;;;;22.03;41.86;97382.66;5138828;27;41778;-83
2023/10/21 14:55:37;;;;;;;0.50;0.50;;;;;;;21.94;41.94;97376.63;5157309;27;42910;-84
2023/10/21 14:58:07;;;;;;;0.40;0.40;;;;;;;21.84;42.05;97379.69;5156884;27;39861;-83
2023/10/21 15:00:36;;;;;;;0.70;0.63;;;;;;;21.67;42.13;97366.78;5156851;27;41880;-85
2023/10/21 15:03:05;;;;;;;1.70;0.60;;;;;;;21.67;43.12;97381.09;5139620;27;41666;-84
2023/10/21 15:05:34;;;;;;;1.80;0.60;;;;;;;21.51;43.20;97370.69;5139558;27;42286;-85
2023/10/21 15:08:02;;;;;;;0.90;0.60;;;;;;;21.42;43.16;97377.25;5139621;27;39582;-84
2023/10/21 15:10:31;;;;;;;0.60;0.60;;;;;;;21.33;44.09;97386.53;5139394;27;42792;-84
2023/10/21 15:12:59;;;;;;;1.33;0.67;;;;;;;21.22;44.14;97392.47;5122990;27;41934;-83
2023/10/21 15:15:26;;;;;;;0.97;0.57;;;;;;;21.00;44.90;97368.31;5158139;27;41456;-84
2023/10/21 15:17:54;;;;;;;1.37;0.70;;;;;;;20.93;44.54;97388.13;5140488;27;41124;-85
2023/10/21 15:20:22;;;;;;;0.50;0.50;;;;;;;20.92;44.83;97408.81;5158142;27;40880;-85
2023/10/21 15:22:52;;;;;;;1.73;0.60;;;;;;;20.63;45.38;97377.56;5176576;27;42745;-85
2023/10/21 15:25:21;;;;;;;1.57;0.80;;;;;;;20.76;45.19;97407.28;5173316;27;42779;-85
2023/10/21 15:27:51;;;;;;;0.60;0.60;;;;;;;20.63;45.85;97398.25;5157476;27;40258;-85
2023/10/21 15:30:20;;;;;;;2.67;0.90;;;;;;;20.56;46.86;97408.94;5176621;27;41385;-86
2023/10/21 15:32:50;;;;;;;0.70;0.50;;;;;;;20.47;46.42;97409.28;5139996;27;42479;-85
2023/10/21 15:35:18;;;;;;;1.47;0.80;;;;;;;20.36;47.12;97407.97;5157801;27;42481;-85
2023/10/21 15:37:47;;;;;;;0.80;0.70;;;;;;;20.25;47.21;97411.13;5140143;27;39418;-84
2023/10/21 15:40:16;;;;;;;0.60;0.50;;;;;;;20.11;47.41;97415.53;5157530;27;42748;-85
2023/10/21 15:42:45;;;;;;;0.43;0.40;;;;;;;20.11;48.10;97420.06;5155301;27;43224;-85
2023/10/21 15:45:16;;;;;;;1.27;0.60;;;;;;;19.95;47.96;97407.69;5156409;27;41472;-85
2023/10/21 15:47:43;;;;;;;1.30;0.60;;;;;;;19.98;47.97;97432.34;5138990;27;39325;-85
2023/10/21 15:50:11;;;;;;;0.53;0.53;;;;;;;19.83;48.70;97411.91;5139274;27;42960;-85
2023/10/21 15:52:39;;;;;;;1.27;0.83;;;;;;;19.78;48.37;97422.41;5138075;27;43056;-85
2023/10/21 15:55:07;;;;;;;0.50;0.50;;;;;;;19.83;48.88;97436.09;5138905;27;44140;-85
2023/10/21 15:57:36;;;;;;;1.77;0.60;;;;;;;19.71;48.76;97420.47;5138418;27;39491;-85
2023/10/21 16:00:11;;;;;;;0.43;0.40;;;;;;;19.66;48.99;97414.81;5156359;27;41253;-85
2023/10/21 16:02:41;;;;;;;1.43;0.50;;;;;;;19.61;49.03;97425.28;5138094;27;41837;-85
2023/10/21 16:05:08;;;;;;;0.57;0.50;;;;;;;19.53;49.08;97411.97;5138937;27;41078;-84
2023/10/21 16:07:36;;;;;;;1.20;0.70;;;;;;;19.52;49.23;97421.06;5138602;27;40201;-85
2023/10/21 16:10:06;;;;;;;1.37;0.80;;;;;;;19.53;49.78;97444.22;5156071;27;42109;-85
2023/10/21 16:12:34;;;;;;;0.37;0.33;;;;;;;19.47;49.37;97444.91;5139270;27;43444;-84
2023/10/21 16:15:03;;;;;;;0.70;0.50;;;;;;;19.35;49.42;97433.81;5139874;27;41139;-84
2023/10/21 16:17:31;;;;;;;0.53;0.50;;;;;;;19.33;49.84;97443.88;5157250;27;39744;-85
2023/10/21 16:20:00;;;;;;;0.73;0.60;;;;;;;19.18;49.90;97434.16;5140006;27;43201;-85
2023/10/21 16:22:30;;;;;;;0.50;0.50;;;;;;;19.17;50.35;97443.22;5157002;27;41919;-85
2023/10/21 16:24:58;;;;;;;1.50;0.70;;;;;;;19.10;50.83;97442.31;5139839;27;41560;-85
2023/10/21 16:27:25;;;;;;;0.50;0.50;;;;;;;18.95;50.78;97444.97;5140073;27;39239;-84
2023/10/21 16:29:53;;;;;;;1.10;0.70;;;;;;;18.98;50.98;97471.44;5140001;27;42990;-85
2023/10/21 16:32:20;;;;;;;1.17;0.70;;;;;;;18.91;50.68;97465.97;5139587;27;41504;-84
2023/10/21 16:34:48;;;;;;;1.63;0.90;;;;;;;18.85;51.19;97463.19;5140153;27;42545;-85
2023/10/21 16:37:18;;;;;;;1.63;1.00;;;;;;;18.81;51.28;97461.88;5141693;27;38791;-85
2023/10/21 16:39:46;;;;;;;1.87;1.30;;;;;;;18.73;51.59;97452.06;5168527;27;41600;-83
2023/10/21 16:42:14;;;;;;;1.37;1.20;;;;;;;18.68;52.09;97459.78;5162901;27;43159;-83
2023/10/21 16:44:41;;;;;;;1.63;1.10;;;;;;;18.61;52.58;97461.53;5138934;27;42147;-83
2023/10/21 16:47:09;;;;;;;1.70;1.30;;;;;;;18.44;52.68;97446.56;5156127;27;40889;-82
2023/10/21 16:49:37;;;;;;;1.67;1.53;;;;;;;18.41;53.08;97439.72;5138876;27;43920;-83
2023/10/21 16:52:05;;;;;;;1.40;1.30;;;;;;;18.36;53.00;97427.88;5138842;27;43289;-83
2023/10/21 16:54:34;;;;;;;1.70;1.37;;;;;;;18.38;53.94;97441.94;5139053;27;43540;-85
2023/10/21 16:57:03;;;;;;;1.27;1.10;;;;;;;18.31;53.30;97458.72;5155529;27;40854;-83
2023/10/21 16:59:31;;;;;;;2.83;1.50;;;;;;;18.25;53.41;97462.13;5138570;27;40932;-84
2023/10/21 17:01:58;;;;;;;1.77;1.10;;;;;;;18.16;53.91;97444.44;5156237;27;42632;-83
2023/10/21 17:04:26;;;;;;;1.57;1.10;;;;;;;18.13;53.82;97463.53;5138570;27;41427;-84
2023/10/21 17:06:55;;;;;;;1.93;1.10;;;;;;;17.99;54.42;97450.91;5138439;27;41025;-84
2023/10/21 17:09:23;;;;;;;1.50;1.00;;;;;;;18.04;54.46;97461.94;5138686;27;41283;-83
2023/10/21 17:11:52;;;;;;;2.07;1.40;;;;;;;17.84;54.23;97453.47;5138038;27;41689;-84
2023/10/21 17:14:20;;;;;;;1.33;1.20;;;;;;;17.81;54.17;97453.00;5157244;27;43327;-84
2023/10/21 17:16:47;;;;;;;1.70;1.53;;;;;;;17.77;54.20;97465.09;5160537;27;39973;-83
2023/10/21 17:19:15;;;;;;;1.30;1.20;;;;;;;17.63;54.90;97463.97;5143405;27;40961;-83
2023/10/21 17:21:42;;;;;;;1.20;1.07;;;;;;;17.65;55.24;97487.91;5159855;27;43036;-83
2023/10/21 17:24:12;;;;;;;1.40;1.30;;;;;;;17.55;55.78;97486.25;5125847;27;42242;-83
2023/10/21 17:26:39;;;;;;;1.40;1.30;;;;;;;17.46;56.50;97487.25;5160391;27;41070;-83
2023/10/21 17:29:08;;;;;;;2.43;1.33;;;;;;;17.26;56.61;97471.78;5143193;27;41497;-83
2023/10/21 17:31:36;;;;;;;1.80;1.50;;;;;;;17.27;56.94;97489.50;5142551;27;41530;-84
2023/10/21 17:34:03;;;;;;;3.40;1.30;;;;;;;17.18;57.05;97475.31;5178696;27;42492;-83
2023/10/21 17:36:31;;;;;;;2.10;1.30;;;;;;;17.16;57.24;97480.00;5142669;27;39969;-83
2023/10/21 17:38:59;;;;;;;2.57;1.73;;;;;;;17.10;58.05;97472.63;5142928;27;40658;-84
2023/10/21 17:41:26;;;;;;;2.27;1.70;;;;;;;17.20;58.01;97500.03;5158893;27;42397;-83
2023/10/21 17:43:54;;;;;;;3.03;2.07;;;;;;;17.08;59.11;97496.03;5140770;27;41227;-83
2023/10/21 17:46:25;;;;;;;3.10;2.43;;;;;;;17.12;58.99;97510.75;5139857;27;39171;-84
2023/10/21 17:48:52;;;;;;;3.00;2.23;;;;;;;17.06;58.81;97511.44;5155059;27;41529;-84
2023/10/21 17:51:22;;;;;;;4.83;2.80;;;;;;;16.94;59.48;97502.09;5157519;27;43796;-84
2023/10/21 17:53:51;;;;;;;1.90;1.70;;;;;;;16.97;59.46;97518.63;5157485;27;43454;-85
2023/10/21 17:56:19;;;;;;;2.20;1.93;;;;;;;16.81;59.36;97499.94;5177108;27;40210;-86
2023/10/21 17:58:48;;;;;;;1.77;1.63;;;;;;;16.87;59.17;97526.00;5158240;27;41843;-86
2023/10/21 18:01:15;;;;;;;1.57;1.47;;;;;;;16.87;59.31;97534.00;5158353;27;43582;-86
2023/10/21 18:03:46;;;;;;;2.57;1.67;;;;;;;16.75;59.21;97514.78;5141092;27;42850;-85
2023/10/21 18:06:14;;;;;;;1.97;1.27;;;;;;;16.84;59.71;97537.84;5140991;27;40458;-85
2023/10/21 18:08:42;;;;;;;2.63;1.60;;;;;;;16.72;61.20;97514.28;5140923;27;42229;-86
2023/10/21 18:11:10;;;;;;;1.13;1.03;;;;;;;16.72;61.54;97515.13;5140568;27;44232;-87
2023/10/21 18:13:39;;;;;;;1.73;1.23;;;;;;;16.68;62.89;97505.78;5142286;27;42414;-86
2023/10/21 18:16:07;;;;;;;2.67;1.40;;;;;;;16.75;62.65;97525.50;5142472;27;39971;-88
2023/10/21 18:18:35;;;;;;;1.53;1.30;;;;;;;16.73;62.87;97529.31;5141940;27;42074;-86
2023/10/21 18:21:04;;;;;;;1.47;1.30;;;;;;;16.59;62.44;97517.41;5142183;27;41377;-85
2023/10/21 18:23:31;;;;;;;3.10;1.20;;;;;;;16.66;63.29;97534.50;5177885;27;41990;-87
2023/10/21 18:26:00;;;;;;;3.40;1.10;;;;;;;16.61;63.91;97535.97;5159133;27;39650;-85
2023/10/21 18:28:28;;;;;;;1.37;1.07;;;;;;;16.56;64.36;97541.00;5141803;27;40942;-85
2023/10/21 18:30:56;;;;;;;2.00;1.20;;;;;;;16.51;63.61;97557.50;5159303;27;43466;-86
2023/10/21 18:33:24;;;;;;;1.70;1.47;;;;;;;16.43;63.74;97560.19;5141560;27;40759;-85
2023/10/21 18:35:51;;;;;;;1.90;1.60;;;;;;;16.25;64.38;97551.44;5159140;27;40894;-84
2023/10/21 18:38:20;;;;;;;2.80;1.93;;;;;;;16.19;65.40;97552.09;5158662;27;40980;-86
2023/10/21 18:40:48;;;;;;;2.37;1.50;;;;;;;16.21;64.75;97574.13;5140892;27;41668;-85
2023/10/21 18:43:16;;;;;;;2.67;1.40;;;;;;;16.11;64.57;97571.59;5156800;27;40866;-84
2023/10/21 18:45:45;;;;;;;3.27;1.43;;;;;;;16.07;64.21;97592.44;5140684;27;39086;-84
2023/10/21 18:48:13;;;;;;;2.53;1.57;;;;;;;15.90;65.16;97569.34;5140427;27;41014;-86
2023/10/21 18:50:42;;;;;;;1.93;1.50;;;;;;;15.74;65.31;97563.94;5140408;27;42960;-88
2023/10/21 18:53:10;;;;;;;2.67;1.33;;;;;;;15.87;65.99;97591.03;5139490;27;41375;-86
2023/10/21 18:55:46;;;;;;;1.73;1.43;;;;;;;15.82;66.93;97599.50;5140546;27;39919;-86
2023/10/21 18:58:14;;;;;;;2.37;1.33;;;;;;;15.72;66.89;97592.59;5157385;27;41750;-84
2023/10/21 19:00:42;;;;;;;3.03;1.60;;;;;;;15.61;67.19;97582.22;5157330;27;41621;-85
2023/10/21 19:03:10;;;;;;;1.53;1.37;;;;;;;15.66;67.69;97603.94;5140089;27;41384;-85
2023/10/21 19:05:37;;;;;;;2.80;1.70;;;;;;;15.50;69.38;97579.78;5157456;27;39574;-85
2023/10/21 19:08:06;;;;;;;2.33;1.70;;;;;;;15.55;68.39;97613.06;5140103;27;42313;-84
2023/10/21 19:10:35;;;;;;;2.40;1.83;;;;;;;15.40;69.09;97594.06;5139617;27;42883;-85
2023/10/21 19:13:05;;;;;;;2.60;1.90;;;;;;;15.42;68.80;97616.09;5140557;27;40786;-85
2023/10/21 19:15:36;;;;;;;2.90;1.90;;;;;;;15.38;68.54;97622.72;5158668;27;39059;-86
2023/10/21 19:18:06;;;;;;;3.27;1.67;;;;;;;15.22;68.50;97601.25;5158182;27;40718;-86
2023/10/21 19:20:33;;;;;;;1.77;1.53;;;;;;;15.29;68.62;97629.00;5176933;27;43116;-86
2023/10/21 19:23:01;;;;;;;1.77;1.33;;;;;;;15.24;68.75;97625.13;5158467;27;42137;-83
2023/10/21 19:25:29;;;;;;;1.53;1.37;;;;;;;15.20;68.73;97629.09;5140977;27;39950;-83
2023/10/21 19:27:56;;;;;;;4.83;1.83;;;;;;;15.07;69.62;97619.69;5140482;27;41822;-84
2023/10/21 19:30:27;;;;;;;2.33;1.40;;;;;;;15.06;69.27;97620.66;5176981;27;42872;-83
2023/10/21 19:32:55;;;;;;;2.27;1.53;;;;;;;15.04;70.04;97629.81;5158327;27;41428;-83
2023/10/21 19:35:23;;;;;;;1.67;1.20;;;;;;;14.88;69.73;97613.66;5158068;27;39720;-83
2023/10/21 19:37:50;;;;;;;2.17;1.30;;;;;;;14.96;69.28;97635.06;5139813;27;41016;-84
2023/10/21 19:40:19;;;;;;;1.70;1.50;;;;;;;14.81;69.13;97631.25;5163768;27;42573;-82
2023/10/21 19:42:47;;;;;;;1.17;1.07;;;;;;;14.84;69.00;97644.25;5142684;27;42350;-83
2023/10/21 19:45:15;;;;;;;1.60;1.50;;;;;;;14.69;70.22;97626.16;5140366;27;39386;-83
2023/10/21 19:47:44;;;;;;;1.30;1.20;;;;;;;14.72;71.46;97640.97;5156847;27;40710;-83
2023/10/21 19:50:11;;;;;;;1.40;1.30;;;;;;;14.69;72.40;97642.16;5156860;27;42912;-82
2023/10/21 19:52:39;;;;;;;1.83;1.10;;;;;;;14.69;71.70;97652.81;5156445;27;43975;-83
2023/10/21 19:55:08;;;;;;;1.50;1.40;;;;;;;14.60;71.75;97634.19;5154104;27;40024;-82
2023/10/21 19:57:36;;;;;;;1.67;1.10;;;;;;;14.74;71.83;97655.84;5138789;27;41094;-83
2023/10/21 20:00:04;;;;;;;1.20;1.10;;;;;;;14.65;71.10;97648.75;5175368;27;42676;-83
2023/10/21 20:02:39;;;;;;;1.93;1.20;;;;;;;14.62;71.82;97637.56;5174281;27;42203;-83
2023/10/21 20:05:09;;;;;;;1.40;1.30;;;;;;;14.64;72.10;97668.41;5139595;27;38920;-82
2023/10/21 20:07:36;;;;;;;2.07;1.30;;;;;;;14.58;72.49;97663.69;5156502;27;42020;-83
2023/10/21 20:10:05;;;;;;;2.23;1.13;;;;;;;14.41;71.96;97647.66;5139445;27;43512;-82
2023/10/21 20:12:32;;;;;;;1.77;1.40;;;;;;;14.34;71.83;97656.19;5139408;27;41073;-83
2023/10/21 20:14:59;;;;;;;2.30;1.47;;;;;;;14.39;71.51;97674.41;5176778;27;40023;-82
2023/10/21 20:17:27;;;;;;;1.50;1.20;;;;;;;14.34;71.78;97679.34;5140071;27;42213;-82
2023/10/21 20:19:57;;;;;;;2.10;1.03;;;;;;;14.29;72.40;97673.63;5157488;27;44175;-83
2023/10/21 20:22:26;;;;;;;1.83;1.43;;;;;;;14.25;72.31;97680.22;5175843;27;42423;-83
2023/10/21 20:24:54;;;;;;;2.13;1.60;;;;;;;14.12;72.86;97666.41;5176157;27;40839;-83
2023/10/21 20:27:22;;;;;;;1.80;1.53;;;;;;;14.18;72.55;97674.66;5156972;27;40835;-82
2023/10/21 20:29:49;;;;;;;1.67;1.57;;;;;;;14.20;72.46;97682.50;5139907;27;44359;-81
2023/10/21 20:32:16;;;;;;;1.60;1.30;;;;;;;14.19;73.12;97686.16;5140399;27;41578;-81
2023/10/21 20:34:44;;;;;;;1.67;1.33;;;;;;;14.13;72.10;97684.88;5176832;27;40271;-83
2023/10/21 20:37:11;;;;;;;2.67;1.23;;;;;;;14.15;72.55;97687.41;5158330;27;40461;-82
2023/10/21 20:39:41;;;;;;;4.00;1.40;;;;;;;14.08;72.38;97689.00;5140401;27;43809;-83
2023/10/21 20:42:10;;;;;;;2.23;1.40;;;;;;;14.02;72.41;97685.09;5138487;27;41628;-82
2023/10/21 20:44:38;;;;;;;2.13;1.27;;;;;;;13.84;72.05;97679.69;5156917;27;40080;-83
2023/10/21 20:47:06;;;;;;;2.50;1.70;;;;;;;13.88;73.16;97699.69;5156122;27;41788;-82
2023/10/21 20:49:34;;;;;;;2.57;1.10;;;;;;;13.81;72.88;97706.59;5138899;27;41538;-83
2023/10/21 20:52:03;;;;;;;3.40;1.40;;;;;;;13.76;73.85;97706.16;5121748;27;42796;-82
2023/10/21 20:54:31;;;;;;;1.87;1.33;;;;;;;13.68;73.17;97703.41;5138709;27;39313;-82
2023/10/21 20:57:00;;;;;;;1.53;1.13;;;;;;;13.68;73.78;97703.41;5155681;27;40765;-81
2023/10/21 20:59:28;;;;;;;1.63;1.53;;;;;;;13.54;73.66;97685.22;5138654;27;42172;-82
2023/10/21 21:01:55;;;;;;;3.70;1.63;;;;;;;13.57;73.43;97701.75;5155931;27;42456;-82
2023/10/21 21:04:23;;;;;;;2.60;1.90;;;;;;;13.60;73.89;97714.72;5138473;27;40615;-82
2023/10/21 21:06:50;;;;;;;2.07;1.67;;;;;;;13.58;74.66;97713.22;5155397;27;41760;-83
2023/10/21 21:09:18;;;;;;;2.47;1.30;;;;;;;13.57;74.60;97715.03;5138115;27;43934;-83
2023/10/21 21:11:46;;;;;;;1.37;1.23;;;;;;;13.52;73.92;97719.09;5155229;27;41200;-83
2023/10/21 21:14:15;;;;;;;1.53;1.40;;;;;;;13.56;73.80;97725.81;5139243;27;40631;-83